createdAt,value
2019-05-01T00:01:37.436Z,99756.22
2019-05-01T00:04:09.978Z,99759.36
2019-05-01T00:06:44.556Z,99759.36
2019-05-01T00:09:15.134Z,99756.05
2019-05-01T00:11:45.494Z,99755.64
2019-05-01T00:14:16.133Z,99754.78
2019-05-01T00:16:46.442Z,99750.13
2019-05-01T00:19:16.829Z,99748.41
2019-05-01T00:21:47.129Z,99744.88
2019-05-01T00:24:17.341Z,99748.38
2019-05-01T00:26:47.621Z,99743.70
2019-05-01T00:29:18.110Z,99743.79
2019-05-01T00:31:48.464Z,99738.19
2019-05-01T00:34:18.817Z,99741.90
2019-05-01T00:36:49.060Z,99740.01
2019-05-01T00:39:19.818Z,99738.91
2019-05-01T00:41:50.232Z,99735.91
2019-05-01T00:44:20.818Z,99736.48
2019-05-01T00:46:51.649Z,99739.12
2019-05-01T00:49:21.909Z,99737.06
2019-05-01T00:51:52.209Z,99741.53
2019-05-01T00:54:22.823Z,99733.94
2019-05-01T00:56:57.655Z,99739.27
2019-05-01T00:59:46.941Z,99734.15
2019-05-01T01:02:33.622Z,99726.91
2019-05-01T01:05:04.578Z,99721.95
2019-05-01T01:07:35.591Z,99725.65
2019-05-01T01:10:08.899Z,99723.86
2019-05-01T01:12:39.208Z,99720.77
2019-05-01T01:15:09.804Z,99719.23
2019-05-01T01:17:40.225Z,99719.47
2019-05-01T01:20:10.809Z,99716.66
2019-05-01T01:22:41.655Z,99720.71
2019-05-01T01:25:12.443Z,99721.20
2019-05-01T01:27:43.270Z,99729.31
2019-05-01T01:30:13.806Z,99715.92
2019-05-01T01:32:44.021Z,99711.30
2019-05-01T01:35:15.319Z,99706.66
2019-05-01T01:37:45.615Z,99712.30
2019-05-01T01:40:16.891Z,99699.91
2019-05-01T01:42:49.880Z,99700.69
2019-05-01T01:45:33.720Z,99701.20
2019-05-01T01:48:15.527Z,99696.09
2019-05-01T01:50:46.962Z,99690.08
2019-05-01T01:53:21.729Z,99692.03
2019-05-01T01:55:52.853Z,99679.98
2019-05-01T01:58:25.158Z,99685.69
2019-05-01T02:01:09.580Z,99679.27
2019-05-01T02:03:43.208Z,99677.42
2019-05-01T02:06:14.547Z,99672.78
2019-05-01T02:08:55.932Z,99672.97
2019-05-01T02:11:17.432Z,99664.33
2019-05-01T02:13:48.150Z,99663.44
2019-05-01T02:16:18.931Z,99656.20
2019-05-01T02:18:49.581Z,99651.56
2019-05-01T02:21:19.950Z,99653.00
2019-05-01T02:23:50.583Z,99648.06
2019-05-01T02:26:23.340Z,99655.16
2019-05-01T02:29:10.292Z,99647.03
2019-05-01T02:31:42.713Z,99644.10
2019-05-01T02:34:13.594Z,99643.31
2019-05-01T02:36:47.326Z,99636.39
2019-05-01T02:39:21.977Z,99631.68
2019-05-01T02:41:55.165Z,99630.45
2019-05-01T02:44:28.585Z,99629.46
2019-05-01T02:47:03.755Z,99622.61
2019-05-01T02:49:52.344Z,99626.91
2019-05-01T02:52:25.827Z,99616.88
2019-05-01T02:55:01.804Z,99618.09
2019-05-01T02:57:35.242Z,99612.16
2019-05-01T03:00:07.458Z,99606.97
2019-05-01T03:02:40.832Z,99604.31
2019-05-01T03:05:12.170Z,99602.47
2019-05-01T03:07:44.373Z,99601.14
2019-05-01T03:10:15.361Z,99601.62
2019-05-01T03:12:48.545Z,99607.66
2019-05-01T03:15:20.822Z,99608.03
2019-05-01T03:17:54.672Z,99608.45
2019-05-01T03:20:42.479Z,99606.09
2019-05-01T03:23:21.554Z,99615.39
2019-05-01T03:25:52.244Z,99613.64
2019-05-01T03:28:23.042Z,99616.34
2019-05-01T03:30:53.334Z,99627.46
2019-05-01T03:33:23.930Z,99637.77
2019-05-01T03:35:55.738Z,99628.64
2019-05-01T03:38:27.054Z,99619.39
2019-05-01T03:40:57.900Z,99624.42
2019-05-01T03:43:29.404Z,99629.45
2019-05-01T03:46:00.522Z,99627.11
2019-05-01T03:48:31.697Z,99637.78
2019-05-01T03:51:03.038Z,99631.08
2019-05-01T03:53:34.360Z,99622.99
2019-05-01T03:56:05.355Z,99622.69
2019-05-01T03:58:35.915Z,99619.72
2019-05-01T04:01:24.177Z,99615.95
2019-05-01T04:03:56.397Z,99616.94
2019-05-01T04:06:27.566Z,99617.30
2019-05-01T04:08:59.082Z,99618.03
2019-05-01T04:11:29.659Z,99611.84
2019-05-01T04:14:00.131Z,99612.70
2019-05-01T04:16:31.601Z,99614.23
2019-05-01T04:19:04.441Z,99616.03
2019-05-01T04:21:42.596Z,99599.30
2019-05-01T04:24:12.830Z,99618.36
2019-05-01T04:26:44.347Z,99608.12
2019-05-01T04:29:14.861Z,99606.16
2019-05-01T04:31:53.849Z,99611.61
2019-05-01T04:34:35.313Z,99606.64
2019-05-01T04:37:07.790Z,99605.45
2019-05-01T04:39:38.091Z,99604.16
2019-05-01T04:42:09.367Z,99620.69
2019-05-01T04:44:41.577Z,99612.55
2019-05-01T04:47:13.737Z,99604.64
2019-05-01T04:49:45.448Z,99616.30
2019-05-01T04:52:16.390Z,99605.00
2019-05-01T04:54:47.549Z,99611.70
2019-05-01T04:57:18.478Z,99601.53
2019-05-01T04:59:49.198Z,99610.02
2019-05-01T05:02:24.164Z,99604.09
2019-05-01T05:04:55.124Z,99606.98
2019-05-01T05:07:26.081Z,99613.23
2019-05-01T05:09:57.834Z,99617.34
2019-05-01T05:12:36.190Z,99621.20
2019-05-01T05:15:26.648Z,99615.09
2019-05-01T05:17:56.930Z,99630.97
2019-05-01T05:20:28.110Z,99619.44
2019-05-01T05:22:59.655Z,99623.61
2019-05-01T05:25:30.846Z,99599.55
2019-05-01T05:28:01.690Z,99612.59
2019-05-01T05:30:34.113Z,99616.04
2019-05-01T05:33:18.122Z,99602.30
2019-05-01T05:35:43.564Z,99608.98
2019-05-01T05:38:21.633Z,99616.50
2019-05-01T05:40:52.996Z,99609.41
2019-05-01T05:43:24.037Z,99613.51
2019-05-01T05:45:54.307Z,99633.22
2019-05-01T05:48:24.812Z,99626.73
2019-05-01T05:50:58.983Z,99635.95
2019-05-01T05:53:38.991Z,99646.54
2019-05-01T05:56:15.789Z,99620.31
2019-05-01T05:58:55.800Z,99617.78
2019-05-01T06:01:45.517Z,99614.72
2019-05-01T06:04:20.449Z,99607.63
2019-05-01T06:06:57.232Z,99614.00
2019-05-01T06:09:34.359Z,99604.97
2019-05-01T06:12:16.108Z,99612.20
2019-05-01T06:14:52.213Z,99598.95
2019-05-01T06:17:28.584Z,99614.13
2019-05-01T06:20:01.632Z,99613.73
2019-05-01T06:22:34.744Z,99609.39
2019-05-01T06:25:21.442Z,99610.41
2019-05-01T06:27:44.828Z,99604.10
2019-05-01T06:30:15.757Z,99627.27
2019-05-01T06:32:47.679Z,99614.83
2019-05-01T06:35:18.484Z,99622.95
2019-05-01T06:38:05.943Z,99633.59
2019-05-01T06:40:38.711Z,99642.30
2019-05-01T06:43:13.626Z,99641.53
2019-05-01T06:45:46.839Z,99628.31
2019-05-01T06:48:23.330Z,99609.43
2019-05-01T06:50:55.954Z,99619.61
2019-05-01T06:53:26.803Z,99599.88
2019-05-01T06:55:57.459Z,99591.08
2019-05-01T06:58:28.547Z,99586.38
2019-05-01T07:00:58.926Z,99635.27
2019-05-01T07:03:29.810Z,99634.16
2019-05-01T07:06:13.629Z,99608.88
2019-05-01T07:08:34.178Z,99589.42
2019-05-01T07:11:05.060Z,99595.89
2019-05-01T07:13:40.123Z,99619.41
2019-05-01T07:16:09.335Z,99630.41
2019-05-01T07:18:40.206Z,99624.02
2019-05-01T07:21:11.544Z,99650.77
2019-05-01T07:23:42.446Z,99667.02
2019-05-01T07:26:13.834Z,99637.76
2019-05-01T07:28:47.338Z,99630.39
2019-05-01T07:31:18.080Z,99651.33
2019-05-01T07:33:51.242Z,99653.45
2019-05-01T07:36:21.222Z,99631.05
2019-05-01T07:38:52.125Z,99670.97
2019-05-01T07:41:22.869Z,99668.72
2019-05-01T07:44:04.730Z,99626.07
2019-05-01T07:46:54.161Z,99635.37
2019-05-01T07:49:27.880Z,99611.56
2019-05-01T07:51:58.511Z,99577.05
2019-05-01T07:54:30.919Z,99595.80
2019-05-01T07:57:03.277Z,99590.93
2019-05-01T07:59:33.920Z,99590.27
2019-05-01T08:02:05.841Z,99598.86
2019-05-01T08:04:36.745Z,99607.96
2019-05-01T08:07:10.012Z,99635.20
2019-05-01T08:09:40.655Z,99648.53
2019-05-01T08:12:10.959Z,99643.45
2019-05-01T08:14:41.179Z,99622.16
2019-05-01T08:17:17.942Z,99593.34
2019-05-01T08:19:47.031Z,99582.70
2019-05-01T08:22:19.329Z,99621.91
2019-05-01T08:24:53.718Z,99630.55
2019-05-01T08:27:32.812Z,99626.72
2019-05-01T08:30:12.770Z,99623.97
2019-05-01T08:32:45.898Z,99602.81
2019-05-01T08:35:18.656Z,99618.53
2019-05-01T08:37:48.881Z,99618.45
2019-05-01T08:40:20.533Z,99607.50
2019-05-01T08:42:52.435Z,99618.78
2019-05-01T08:45:35.713Z,99620.27
2019-05-01T08:48:20.790Z,99608.54
2019-05-01T08:50:54.650Z,99603.52
2019-05-01T08:53:23.405Z,99604.64
2019-05-01T08:55:54.165Z,99597.37
2019-05-01T08:58:24.805Z,99589.19
2019-05-01T09:00:55.097Z,99575.40
2019-05-01T09:03:25.328Z,99591.28
2019-05-01T09:05:57.467Z,99583.28
2019-05-01T09:08:32.033Z,99599.70
2019-05-01T09:11:02.299Z,99599.38
2019-05-01T09:13:33.092Z,99595.92
2019-05-01T09:16:03.381Z,99587.95
2019-05-01T09:18:33.946Z,99591.91
2019-05-01T09:21:05.131Z,99589.39
2019-05-01T09:23:35.908Z,99581.48
2019-05-01T09:26:24.049Z,99572.63
2019-05-01T09:29:16.019Z,99562.63
2019-05-01T09:31:44.957Z,99575.09
2019-05-01T09:34:19.205Z,99575.45
2019-05-01T09:36:48.038Z,99532.52
2019-05-01T09:39:20.744Z,99538.15
2019-05-01T09:41:51.029Z,99547.09
2019-05-01T09:44:21.678Z,99528.37
2019-05-01T09:46:52.040Z,99522.73
2019-05-01T09:49:22.997Z,99527.27
2019-05-01T09:51:56.193Z,99518.17
2019-05-01T09:54:29.210Z,99515.34
2019-05-01T09:57:00.076Z,99535.71
2019-05-01T09:59:30.491Z,99550.20
2019-05-01T10:02:02.993Z,99542.42
2019-05-01T10:04:34.191Z,99539.58
2019-05-01T10:07:06.291Z,99537.28
2019-05-01T10:09:36.891Z,99539.89
2019-05-01T10:12:11.534Z,99537.98
2019-05-01T10:14:40.198Z,99514.49
2019-05-01T10:17:13.412Z,99487.55
2019-05-01T10:19:43.333Z,99483.61
2019-05-01T10:22:13.682Z,99484.13
2019-05-01T10:24:43.889Z,99482.48
2019-05-01T10:27:17.319Z,99482.27
2019-05-01T10:29:52.021Z,99479.02
2019-05-01T10:32:24.256Z,99479.50
2019-05-01T10:35:00.186Z,99463.69
2019-05-01T10:37:33.641Z,99476.66
2019-05-01T10:40:06.154Z,99473.25
2019-05-01T10:42:37.342Z,99474.48
2019-05-01T10:45:08.421Z,99483.41
2019-05-01T10:47:38.642Z,99469.09
2019-05-01T10:50:10.592Z,99467.91
2019-05-01T10:52:40.907Z,99456.94
2019-05-01T10:55:11.832Z,99461.17
2019-05-01T10:57:42.583Z,99453.45
2019-05-01T11:00:14.897Z,99462.92
2019-05-01T11:02:45.464Z,99448.16
2019-05-01T11:05:16.047Z,99456.80
2019-05-01T11:07:46.628Z,99442.19
2019-05-01T11:10:16.937Z,99442.97
2019-05-01T11:12:47.186Z,99443.28
2019-05-01T11:15:18.840Z,99442.38
2019-05-01T11:17:49.124Z,99437.53
2019-05-01T11:20:19.355Z,99439.16
2019-05-01T11:22:49.608Z,99432.36
2019-05-01T11:25:20.920Z,99426.98
2019-05-01T11:27:51.222Z,99429.31
2019-05-01T11:30:21.528Z,99432.76
2019-05-01T11:33:02.455Z,99426.45
2019-05-01T11:35:47.587Z,99426.11
2019-05-01T11:38:34.893Z,99427.10
2019-05-01T11:41:13.609Z,99420.80
2019-05-01T11:43:44.205Z,99415.55
2019-05-01T11:46:14.913Z,99410.22
2019-05-01T11:48:45.271Z,99406.52
2019-05-01T11:51:15.942Z,99418.55
2019-05-01T11:53:46.740Z,99411.31
2019-05-01T11:56:17.514Z,99410.25
2019-05-01T11:58:47.761Z,99411.39
2019-05-01T12:01:21.182Z,99406.78
2019-05-01T12:03:51.397Z,99405.16
2019-05-01T12:06:23.216Z,99397.66
2019-05-01T12:08:55.057Z,99398.83
2019-05-01T12:11:28.534Z,99395.31
2019-05-01T12:13:59.199Z,99400.79
2019-05-01T12:16:47.926Z,99397.14
2019-05-01T12:19:18.688Z,99396.61
2019-05-01T12:21:48.935Z,99392.80
2019-05-01T12:24:19.143Z,99384.04
2019-05-01T12:26:49.511Z,99390.20
2019-05-01T12:29:19.722Z,99388.46
2019-05-01T12:31:49.935Z,99375.56
2019-05-01T12:34:20.127Z,99375.56
2019-05-01T12:36:52.066Z,99390.09
2019-05-01T12:39:22.368Z,99384.12
2019-05-01T12:41:56.937Z,99380.28
2019-05-01T12:44:27.137Z,99380.72
2019-05-01T12:47:05.153Z,99382.70
2019-05-01T12:49:35.814Z,99377.73
2019-05-01T12:52:10.982Z,99368.78
2019-05-01T12:54:51.842Z,99361.91
2019-05-01T12:57:20.877Z,99367.59
2019-05-01T12:59:51.348Z,99359.98
2019-05-01T13:02:21.549Z,99354.66
2019-05-01T13:04:51.785Z,99359.88
2019-05-01T13:07:22.560Z,99356.20
2019-05-01T13:09:53.382Z,99360.13
2019-05-01T13:12:25.624Z,99362.67
2019-05-01T13:14:55.951Z,99353.61
2019-05-01T13:17:26.541Z,99347.11
2019-05-01T13:19:57.170Z,99337.89
2019-05-01T13:22:27.835Z,99333.81
2019-05-01T13:24:58.496Z,99338.45
2019-05-01T13:27:39.631Z,99328.63
2019-05-01T13:30:28.111Z,99326.02
2019-05-01T13:32:58.462Z,99315.49
2019-05-01T13:35:30.570Z,99308.86
2019-05-01T13:38:00.619Z,99313.43
2019-05-01T13:40:31.395Z,99322.20
2019-05-01T13:43:01.669Z,99314.87
2019-05-01T13:45:32.317Z,99316.66
2019-05-01T13:48:02.950Z,99316.80
2019-05-01T13:50:35.051Z,99307.54
2019-05-01T13:53:06.242Z,99311.95
2019-05-01T13:55:36.548Z,99311.52
2019-05-01T13:58:07.181Z,99310.48
2019-05-01T14:00:37.729Z,99309.20
2019-05-01T14:03:08.315Z,99307.42
2019-05-01T14:05:39.045Z,99313.76
2019-05-01T14:08:09.706Z,99307.05
2019-05-01T14:10:39.965Z,99307.37
2019-05-01T14:13:10.231Z,99307.84
2019-05-01T14:15:40.445Z,99308.86
2019-05-01T14:18:10.680Z,99308.20
2019-05-01T14:20:42.529Z,99300.56
2019-05-01T14:23:17.446Z,99301.86
2019-05-01T14:26:08.515Z,99297.38
2019-05-01T14:28:39.146Z,99292.67
2019-05-01T14:31:09.787Z,99297.97
2019-05-01T14:33:40.540Z,99287.77
2019-05-01T14:36:11.123Z,99283.87
2019-05-01T14:38:41.417Z,99282.19
2019-05-01T14:41:11.655Z,99286.31
2019-05-01T14:43:42.236Z,99282.68
2019-05-01T14:46:13.945Z,99280.23
2019-05-01T14:48:44.601Z,99286.60
2019-05-01T14:51:16.192Z,99283.66
2019-05-01T14:53:46.595Z,99281.35
2019-05-01T14:56:16.891Z,99285.48
2019-05-01T14:58:47.194Z,99289.15
2019-05-01T15:01:17.419Z,99274.14
2019-05-01T15:03:47.642Z,99287.27
2019-05-01T15:06:18.228Z,99284.81
2019-05-01T15:08:48.593Z,99280.32
2019-05-01T15:11:18.814Z,99281.92
2019-05-01T15:13:50.682Z,99278.46
2019-05-01T15:16:21.020Z,99285.00
2019-05-01T15:19:10.729Z,99280.88
2019-05-01T15:21:41.361Z,99284.85
2019-05-01T15:24:11.635Z,99294.71
2019-05-01T15:26:42.258Z,99290.52
2019-05-01T15:29:12.957Z,99289.44
2019-05-01T15:31:43.729Z,99285.20
2019-05-01T15:34:14.431Z,99274.51
2019-05-01T15:36:44.738Z,99281.66
2019-05-01T15:39:19.136Z,99274.25
2019-05-01T15:41:50.550Z,99279.97
2019-05-01T15:44:22.798Z,99273.98
2019-05-01T15:46:53.437Z,99277.98
2019-05-01T15:49:24.310Z,99284.50
2019-05-01T15:51:54.610Z,99283.94
2019-05-01T15:54:24.897Z,99279.14
2019-05-01T15:56:55.198Z,99279.41
2019-05-01T15:59:25.512Z,99284.19
2019-05-01T16:01:55.718Z,99279.64
2019-05-01T16:04:26.285Z,99276.27
2019-05-01T16:06:56.916Z,99278.57
2019-05-01T16:09:27.837Z,99280.63
2019-05-01T16:12:06.994Z,99280.16
2019-05-01T16:14:37.616Z,99280.80
2019-05-01T16:17:07.933Z,99274.91
2019-05-01T16:19:38.318Z,99277.30
2019-05-01T16:22:08.708Z,99273.25
2019-05-01T16:24:38.982Z,99272.27
2019-05-01T16:27:09.148Z,99277.67
2019-05-01T16:29:40.097Z,99278.39
2019-05-01T16:32:11.524Z,99273.58
2019-05-01T16:34:42.232Z,99278.15
2019-05-01T16:37:12.513Z,99279.67
2019-05-01T16:39:44.389Z,99281.66
2019-05-01T16:42:14.947Z,99273.69
2019-05-01T16:44:45.234Z,99287.98
2019-05-01T16:47:17.065Z,99282.80
2019-05-01T16:49:47.826Z,99276.33
2019-05-01T16:52:20.034Z,99278.46
2019-05-01T16:54:59.069Z,99279.03
2019-05-01T16:57:22.724Z,99284.76
2019-05-01T16:59:53.405Z,99276.89
2019-05-01T17:02:41.099Z,99279.64
2019-05-01T17:05:30.332Z,99279.14
2019-05-01T17:08:02.253Z,99280.79
2019-05-01T17:10:34.742Z,99280.34
2019-05-01T17:13:07.624Z,99279.39
2019-05-01T17:15:39.579Z,99274.95
2019-05-01T17:18:10.439Z,99280.82
2019-05-01T17:20:40.761Z,99284.16
2019-05-01T17:23:10.964Z,99286.58
2019-05-01T17:25:41.331Z,99280.42
2019-05-01T17:28:11.753Z,99283.39
2019-05-01T17:30:48.060Z,99285.70
2019-05-01T17:33:20.684Z,99281.07
2019-05-01T17:35:50.860Z,99287.91
2019-05-01T17:38:21.293Z,99280.38
2019-05-01T17:40:52.494Z,99277.61
2019-05-01T17:43:23.417Z,99278.22
2019-05-01T17:45:53.750Z,99283.69
2019-05-01T17:48:23.986Z,99286.11
2019-05-01T17:50:55.152Z,99285.85
2019-05-01T17:53:26.118Z,99289.23
2019-05-01T17:55:56.378Z,99295.44
2019-05-01T17:58:26.583Z,99293.27
2019-05-01T18:00:58.442Z,99292.28
2019-05-01T18:03:33.076Z,99293.06
2019-05-01T18:06:16.735Z,99295.73
2019-05-01T18:08:47.003Z,99296.07
2019-05-01T18:11:17.648Z,99299.09
2019-05-01T18:13:48.418Z,99291.23
2019-05-01T18:16:18.808Z,99293.70
2019-05-01T18:18:50.432Z,99292.58
2019-05-01T18:21:21.441Z,99296.33
2019-05-01T18:23:53.734Z,99297.41
2019-05-01T18:26:24.444Z,99301.55
2019-05-01T18:29:12.699Z,99299.77
2019-05-01T18:31:43.024Z,99296.28
2019-05-01T18:34:13.326Z,99301.51
2019-05-01T18:36:54.986Z,99297.17
2019-05-01T18:39:32.470Z,99300.25
2019-05-01T18:42:07.687Z,99297.52
2019-05-01T18:44:37.978Z,99306.85
2019-05-01T18:47:08.664Z,99299.04
2019-05-01T18:49:38.948Z,99301.51
2019-05-01T18:52:10.212Z,99299.69
2019-05-01T18:54:40.508Z,99296.82
2019-05-01T18:57:11.122Z,99304.10
2019-05-01T18:59:41.778Z,99299.64
2019-05-01T19:02:12.272Z,99292.44
2019-05-01T19:04:42.477Z,99293.94
2019-05-01T19:07:13.067Z,99294.44
2019-05-01T19:09:43.983Z,99293.17
2019-05-01T19:12:16.271Z,99295.81
2019-05-01T19:14:47.214Z,99289.51
2019-05-01T19:17:17.508Z,99287.13
2019-05-01T19:19:47.727Z,99284.67
2019-05-01T19:22:19.680Z,99285.05
2019-05-01T19:24:49.998Z,99276.35
2019-05-01T19:27:21.250Z,99281.45
2019-05-01T19:29:53.064Z,99271.83
2019-05-01T19:32:23.713Z,99280.95
2019-05-01T19:34:54.429Z,99286.88
2019-05-01T19:37:29.268Z,99279.19
2019-05-01T19:39:57.185Z,99279.34
2019-05-01T19:42:27.418Z,99277.96
2019-05-01T19:44:57.929Z,99282.97
2019-05-01T19:47:28.286Z,99284.66
2019-05-01T19:50:06.613Z,99285.98
2019-05-01T19:52:32.320Z,99290.22
2019-05-01T19:55:06.332Z,99290.14
2019-05-01T19:57:35.415Z,99291.68
2019-05-01T20:00:11.027Z,99281.45
2019-05-01T20:02:42.400Z,99282.75
2019-05-01T20:05:12.959Z,99285.13
2019-05-01T20:07:43.244Z,99292.98
2019-05-01T20:10:14.650Z,99289.21
2019-05-01T20:12:47.646Z,99294.45
2019-05-01T20:15:20.075Z,99293.05
2019-05-01T20:17:50.921Z,99295.06
2019-05-01T20:20:21.225Z,99290.73
2019-05-01T20:22:53.320Z,99292.58
2019-05-01T20:25:24.624Z,99284.20
2019-05-01T20:27:57.343Z,99289.73
2019-05-01T20:30:27.419Z,99274.27
2019-05-01T20:33:02.127Z,99289.68
2019-05-01T20:35:30.346Z,99291.44
2019-05-01T20:38:00.960Z,99290.41
2019-05-01T20:40:31.872Z,99285.23
2019-05-01T20:43:05.900Z,99281.56
2019-05-01T20:45:34.865Z,99283.55
2019-05-01T20:48:05.238Z,99282.21
2019-05-01T20:50:35.819Z,99284.34
2019-05-01T20:53:06.565Z,99283.67
2019-05-01T20:55:37.058Z,99276.37
2019-05-01T20:58:20.849Z,99268.20
2019-05-01T21:00:54.795Z,99268.45
2019-05-01T21:03:25.321Z,99243.16
2019-05-01T21:06:12.746Z,99261.91
2019-05-01T21:08:46.065Z,99263.13
2019-05-01T21:11:18.319Z,99261.94
2019-05-01T21:13:48.894Z,99265.61
2019-05-01T21:16:19.560Z,99264.88
2019-05-01T21:18:50.227Z,99267.33
2019-05-01T21:21:20.508Z,99267.05
2019-05-01T21:23:55.303Z,99255.72
2019-05-01T21:26:23.448Z,99258.62
2019-05-01T21:28:54.135Z,99251.89
2019-05-01T21:31:24.788Z,99248.89
2019-05-01T21:33:55.441Z,99244.48
2019-05-01T21:36:26.453Z,99250.38
2019-05-01T21:38:57.103Z,99247.14
2019-05-01T21:41:27.419Z,99240.39
2019-05-01T21:43:57.976Z,99239.06
2019-05-01T21:46:28.601Z,99237.94
2019-05-01T21:48:59.307Z,99228.55
2019-05-01T21:51:29.961Z,99225.64
2019-05-01T21:54:00.655Z,99223.11
2019-05-01T21:56:31.019Z,99222.57
2019-05-01T21:59:06.642Z,99221.81
2019-05-01T22:01:34.728Z,99217.50
2019-05-01T22:04:06.680Z,99214.59
2019-05-01T22:06:36.949Z,99206.44
2019-05-01T22:09:10.499Z,99211.69
2019-05-01T22:11:45.171Z,99207.38
2019-05-01T22:14:17.110Z,99202.22
2019-05-01T22:16:47.684Z,99194.52
2019-05-01T22:19:20.267Z,99185.90
2019-05-01T22:21:58.876Z,99180.83
2019-05-01T22:24:42.723Z,99188.88
2019-05-01T22:27:13.180Z,99179.41
2019-05-01T22:29:48.884Z,99182.22
2019-05-01T22:32:39.283Z,99177.16
2019-05-01T22:35:13.659Z,99178.64
2019-05-01T22:37:44.949Z,99166.55
2019-05-01T22:40:17.252Z,99173.58
2019-05-01T22:42:47.536Z,99167.20
2019-05-01T22:45:23.131Z,99170.97
2019-05-01T22:47:53.448Z,99150.13
2019-05-01T22:50:24.738Z,99162.30
2019-05-01T22:52:55.392Z,99158.05
2019-05-01T22:55:26.761Z,99164.34
2019-05-01T22:57:57.214Z,99154.67
2019-05-01T23:00:45.388Z,99143.48
2019-05-01T23:03:23.339Z,99140.91
2019-05-01T23:05:54.016Z,99145.48
2019-05-01T23:08:24.642Z,99138.98
2019-05-01T23:10:55.289Z,99137.67
2019-05-01T23:13:26.019Z,99138.05
2019-05-01T23:15:58.045Z,99127.19
2019-05-01T23:18:28.379Z,99130.95
2019-05-01T23:20:58.586Z,99124.36
2019-05-01T23:23:28.984Z,99116.80
2019-05-01T23:25:59.214Z,99117.55
2019-05-01T23:28:29.427Z,99111.40
2019-05-01T23:30:59.655Z,99115.81
2019-05-01T23:33:30.592Z,99110.69
2019-05-01T23:36:00.940Z,99115.48
2019-05-01T23:38:31.140Z,99113.38
2019-05-01T23:41:01.368Z,99116.94
2019-05-01T23:43:31.705Z,99109.86
2019-05-01T23:46:02.016Z,99116.02
2019-05-01T23:48:32.234Z,99112.48
2019-05-01T23:51:02.475Z,99109.63
2019-05-01T23:53:32.681Z,99104.31
2019-05-01T23:56:03.267Z,99099.17
2019-05-01T23:58:33.542Z,99103.72
